createdAt,value
2023-04-15T00:00:00.391Z,6.00
2023-04-15T00:01:00.335Z,6.00
2023-04-15T00:02:00.535Z,6.00
2023-04-15T00:03:00.448Z,6.00
2023-04-15T00:04:00.482Z,6.00
2023-04-15T00:05:00.337Z,6.00
2023-04-15T00:06:00.348Z,6.00
2023-04-15T00:07:00.358Z,6.00
2023-04-15T00:08:00.417Z,6.00
2023-04-15T00:09:00.617Z,6.00
2023-04-15T00:10:00.592Z,6.00
2023-04-15T00:11:00.328Z,6.00
2023-04-15T00:12:00.327Z,6.00
2023-04-15T00:13:00.350Z,6.00
2023-04-15T00:14:00.353Z,6.00
2023-04-15T00:15:00.397Z,8.80
2023-04-15T00:16:00.655Z,8.80
2023-04-15T00:17:00.500Z,8.80
2023-04-15T00:18:00.354Z,8.80
2023-04-15T00:19:00.689Z,8.80
2023-04-15T00:20:00.455Z,8.80
2023-04-15T00:21:00.466Z,8.80
2023-04-15T00:22:00.354Z,8.80
2023-04-15T00:23:01.193Z,8.80
2023-04-15T00:24:00.343Z,8.80
2023-04-15T00:25:00.370Z,8.80
2023-04-15T00:26:00.366Z,8.80
2023-04-15T00:27:00.336Z,8.80
2023-04-15T00:28:00.331Z,8.80
2023-04-15T00:29:00.508Z,8.80
2023-04-15T00:30:00.363Z,8.80
2023-04-15T00:31:00.389Z,8.80
2023-04-15T00:32:00.398Z,8.80
2023-04-15T00:33:00.471Z,8.80
2023-04-15T00:34:00.370Z,8.80
2023-04-15T00:35:00.367Z,8.80
2023-04-15T00:36:00.359Z,8.80
2023-04-15T00:37:00.361Z,8.80
2023-04-15T00:38:00.350Z,8.80
2023-04-15T00:39:00.580Z,8.80
2023-04-15T00:40:00.329Z,8.80
2023-04-15T00:41:00.662Z,8.80
2023-04-15T00:42:01.075Z,8.80
2023-04-15T00:43:00.801Z,8.80
2023-04-15T00:44:00.647Z,8.80
2023-04-15T00:45:00.375Z,7.00
2023-04-15T00:46:00.540Z,7.00
2023-04-15T00:47:00.455Z,7.00
2023-04-15T00:48:00.705Z,7.00
2023-04-15T00:49:01.869Z,7.00
2023-04-15T00:50:00.341Z,7.00
2023-04-15T00:51:00.353Z,7.00
2023-04-15T00:52:00.355Z,7.00
2023-04-15T00:53:00.334Z,7.00
2023-04-15T00:54:01.026Z,7.00
2023-04-15T00:55:00.661Z,7.00
2023-04-15T00:56:00.339Z,7.00
2023-04-15T00:57:00.397Z,7.00
2023-04-15T00:58:00.389Z,7.00
2023-04-15T00:59:00.855Z,7.00
2023-04-15T01:00:00.455Z,7.00
2023-04-15T01:01:00.378Z,7.00
2023-04-15T01:02:00.460Z,7.00
2023-04-15T01:03:00.613Z,7.00
2023-04-15T01:04:00.453Z,7.00
2023-04-15T01:05:00.379Z,7.00
2023-04-15T01:06:02.970Z,7.00
2023-04-15T01:07:00.341Z,7.00
2023-04-15T01:08:00.387Z,7.00
2023-04-15T01:09:00.739Z,7.00
2023-04-15T01:10:01.333Z,7.00
2023-04-15T01:11:00.790Z,7.00
2023-04-15T01:12:00.335Z,7.00
2023-04-15T01:13:02.017Z,7.00
2023-04-15T01:14:00.632Z,7.00
2023-04-15T01:15:00.843Z,6.90
2023-04-15T01:16:00.701Z,6.90
2023-04-15T01:17:00.593Z,6.90
2023-04-15T01:18:01.379Z,6.90
2023-04-15T01:19:00.903Z,6.90
2023-04-15T01:20:00.663Z,6.90
2023-04-15T01:21:00.848Z,6.90
2023-04-15T01:22:01.390Z,6.90
2023-04-15T01:23:00.433Z,6.90
2023-04-15T01:24:01.275Z,6.90
2023-04-15T01:25:05.196Z,6.90
2023-04-15T01:26:00.792Z,6.90
2023-04-15T01:27:00.406Z,6.90
2023-04-15T01:28:00.393Z,6.90
2023-04-15T01:29:00.602Z,6.90
2023-04-15T01:30:00.354Z,6.90
2023-04-15T01:31:08.814Z,6.90
2023-04-15T01:32:00.336Z,6.90
2023-04-15T01:33:00.356Z,6.90
2023-04-15T01:34:00.673Z,6.90
2023-04-15T01:35:00.481Z,6.90
2023-04-15T01:36:00.373Z,6.90
2023-04-15T01:37:00.341Z,6.90
2023-04-15T01:38:03.900Z,6.90
2023-04-15T01:39:00.570Z,6.90
2023-04-15T01:40:00.414Z,6.90
2023-04-15T01:41:00.410Z,6.90
2023-04-15T01:42:00.331Z,6.90
2023-04-15T01:43:00.990Z,6.90
2023-04-15T01:44:00.347Z,6.90
2023-04-15T01:45:00.326Z,6.00
2023-04-15T01:46:00.389Z,6.00
2023-04-15T01:47:00.497Z,6.00
2023-04-15T01:48:00.375Z,6.00
2023-04-15T01:49:00.773Z,6.00
2023-04-15T01:50:00.348Z,6.00
2023-04-15T01:51:00.357Z,6.00
2023-04-15T01:52:00.348Z,6.00
2023-04-15T01:53:00.361Z,6.00
2023-04-15T01:54:00.432Z,6.00
2023-04-15T01:55:00.355Z,6.00
2023-04-15T01:56:00.333Z,6.00
2023-04-15T01:57:00.351Z,6.00
2023-04-15T01:58:00.390Z,6.00
2023-04-15T01:59:00.579Z,6.00
2023-04-15T02:00:00.383Z,6.00
2023-04-15T02:01:00.396Z,6.00
2023-04-15T02:02:00.461Z,6.00
2023-04-15T02:03:00.456Z,6.00
2023-04-15T02:04:00.371Z,6.00
2023-04-15T02:05:00.360Z,6.00
2023-04-15T02:06:00.350Z,6.00
2023-04-15T02:07:00.364Z,6.00
2023-04-15T02:08:00.377Z,6.00
2023-04-15T02:09:00.717Z,6.00
2023-04-15T02:10:00.385Z,6.00
2023-04-15T02:11:00.368Z,6.00
2023-04-15T02:12:00.361Z,6.00
2023-04-15T02:13:00.384Z,6.00
2023-04-15T02:14:00.359Z,6.00
2023-04-15T02:15:00.462Z,5.80
2023-04-15T02:16:00.461Z,5.80
2023-04-15T02:17:00.371Z,5.80
2023-04-15T02:18:00.429Z,5.80
2023-04-15T02:19:00.828Z,5.80
2023-04-15T02:20:00.591Z,5.80
2023-04-15T02:21:00.444Z,5.80
2023-04-15T02:22:00.440Z,5.80
2023-04-15T02:23:00.349Z,5.80
2023-04-15T02:24:00.336Z,5.80
2023-04-15T02:25:00.358Z,5.80
2023-04-15T02:26:00.359Z,5.80
2023-04-15T02:27:00.342Z,5.80
2023-04-15T02:28:00.333Z,5.80
2023-04-15T02:29:00.784Z,5.80
2023-04-15T02:30:00.425Z,5.80
2023-04-15T02:31:03.857Z,5.80
2023-04-15T02:32:00.370Z,5.80
2023-04-15T02:33:00.721Z,5.80
2023-04-15T02:34:00.335Z,5.80
2023-04-15T02:35:02.213Z,5.80
2023-04-15T02:36:00.350Z,5.80
2023-04-15T02:37:00.355Z,5.80
2023-04-15T02:38:00.337Z,5.80
2023-04-15T02:39:00.711Z,5.80
2023-04-15T02:40:00.402Z,5.80
2023-04-15T02:41:00.342Z,5.80
2023-04-15T02:42:00.361Z,5.80
2023-04-15T02:43:00.343Z,5.80
2023-04-15T02:44:00.367Z,5.80
2023-04-15T02:45:00.369Z,10.30
2023-04-15T02:46:00.383Z,10.30
2023-04-15T02:47:00.341Z,10.30
2023-04-15T02:48:00.344Z,10.30
2023-04-15T02:49:00.692Z,10.30
2023-04-15T02:50:01.844Z,10.30
2023-04-15T02:51:10.168Z,10.30
2023-04-15T02:52:00.396Z,10.30
2023-04-15T02:53:00.450Z,10.30
2023-04-15T02:54:00.334Z,10.30
2023-04-15T02:55:00.373Z,10.30
2023-04-15T02:56:00.337Z,10.30
2023-04-15T02:57:00.332Z,10.30
2023-04-15T02:58:00.368Z,10.30
2023-04-15T02:59:00.609Z,10.30
2023-04-15T03:00:00.363Z,10.30
2023-04-15T03:01:00.352Z,10.30
2023-04-15T03:02:00.428Z,10.30
2023-04-15T03:03:01.964Z,10.30
2023-04-15T03:04:00.529Z,10.30
2023-04-15T03:05:00.390Z,10.30
2023-04-15T03:06:00.343Z,10.30
2023-04-15T03:07:00.821Z,10.30
2023-04-15T03:08:00.334Z,10.30
2023-04-15T03:09:00.638Z,10.30
2023-04-15T03:10:00.340Z,10.30
2023-04-15T03:11:00.366Z,10.30
2023-04-15T03:12:00.359Z,10.30
2023-04-15T03:13:00.433Z,10.30
2023-04-15T03:14:00.341Z,10.30
2023-04-15T03:15:00.341Z,9.90
2023-04-15T03:16:01.143Z,9.90
2023-04-15T03:17:00.342Z,9.90
2023-04-15T03:18:00.370Z,9.90
2023-04-15T03:19:00.632Z,9.90
2023-04-15T03:20:01.273Z,9.90
2023-04-15T03:21:00.347Z,9.90
2023-04-15T03:22:00.332Z,9.90
2023-04-15T03:23:00.339Z,9.90
2023-04-15T03:24:00.363Z,9.90
2023-04-15T03:25:00.337Z,9.90
2023-04-15T03:26:01.883Z,9.90
2023-04-15T03:27:00.381Z,9.90
2023-04-15T03:28:00.357Z,9.90
2023-04-15T03:29:00.638Z,9.90
2023-04-15T03:30:00.353Z,9.90
2023-04-15T03:31:00.385Z,9.90
2023-04-15T03:32:00.347Z,9.90
2023-04-15T03:33:00.371Z,9.90
2023-04-15T03:34:00.347Z,9.90
2023-04-15T03:35:00.480Z,9.90
2023-04-15T03:36:00.336Z,9.90
2023-04-15T03:37:00.345Z,9.90
2023-04-15T03:38:00.330Z,9.90
2023-04-15T03:39:00.540Z,9.90
2023-04-15T03:40:01.248Z,9.90
2023-04-15T03:41:00.336Z,9.90
2023-04-15T03:42:00.418Z,9.90
2023-04-15T03:43:00.339Z,9.90
2023-04-15T03:44:00.339Z,9.90
2023-04-15T03:45:00.405Z,11.40
2023-04-15T03:46:01.949Z,11.40
2023-04-15T03:47:00.496Z,11.40
2023-04-15T03:48:11.541Z,11.40
2023-04-15T03:49:01.033Z,11.40
2023-04-15T03:50:00.384Z,11.40
2023-04-15T03:51:00.405Z,11.40
2023-04-15T03:52:00.340Z,11.40
2023-04-15T03:53:00.340Z,11.40
2023-04-15T03:54:00.378Z,11.40
2023-04-15T03:55:00.361Z,11.40
2023-04-15T03:56:00.387Z,11.40
2023-04-15T03:57:00.347Z,11.40
2023-04-15T03:58:00.337Z,11.40
2023-04-15T03:59:00.579Z,11.40
2023-04-15T04:00:00.401Z,11.40
2023-04-15T04:01:00.332Z,11.40
2023-04-15T04:02:00.486Z,11.40
2023-04-15T04:03:00.567Z,11.40
2023-04-15T04:04:00.400Z,11.40
2023-04-15T04:05:00.352Z,11.40
2023-04-15T04:06:00.454Z,11.40
2023-04-15T04:07:00.351Z,11.40
2023-04-15T04:08:00.348Z,11.40
2023-04-15T04:09:00.618Z,11.40
2023-04-15T04:10:01.428Z,11.40
2023-04-15T04:11:00.337Z,11.40
2023-04-15T04:12:00.338Z,11.40
2023-04-15T04:13:00.419Z,11.40
2023-04-15T04:14:00.341Z,11.40
2023-04-15T04:15:00.348Z,11.40
2023-04-15T04:16:00.459Z,9.30
2023-04-15T04:17:00.504Z,9.30
2023-04-15T04:18:00.441Z,9.30
2023-04-15T04:19:00.545Z,9.30
2023-04-15T04:20:00.337Z,9.30
2023-04-15T04:21:00.374Z,9.30
2023-04-15T04:22:00.358Z,9.30
2023-04-15T04:23:00.361Z,9.30
2023-04-15T04:24:00.351Z,9.30
2023-04-15T04:25:00.332Z,9.30
2023-04-15T04:26:00.331Z,9.30
2023-04-15T04:27:00.329Z,9.30
2023-04-15T04:28:00.379Z,9.30
2023-04-15T04:29:00.499Z,9.30
2023-04-15T04:30:00.641Z,9.30
2023-04-15T04:31:00.438Z,9.30
2023-04-15T04:32:00.383Z,9.30
2023-04-15T04:33:00.747Z,9.30
2023-04-15T04:34:00.336Z,9.30
2023-04-15T04:35:00.387Z,9.30
2023-04-15T04:36:00.330Z,9.30
2023-04-15T04:37:00.348Z,9.30
2023-04-15T04:38:00.423Z,9.30
2023-04-15T04:39:00.597Z,9.30
2023-04-15T04:40:00.369Z,9.30
2023-04-15T04:41:00.388Z,9.30
2023-04-15T04:42:00.376Z,9.30
2023-04-15T04:43:00.404Z,9.30
2023-04-15T04:44:00.379Z,9.30
2023-04-15T04:45:00.369Z,9.30
2023-04-15T04:46:00.456Z,10.00
2023-04-15T04:47:00.330Z,10.00
2023-04-15T04:48:00.411Z,10.00
2023-04-15T04:49:00.403Z,10.00
2023-04-15T04:50:00.396Z,10.00
2023-04-15T04:51:00.453Z,10.00
2023-04-15T04:52:00.381Z,10.00
2023-04-15T04:53:00.722Z,10.00
2023-04-15T04:54:01.756Z,10.00
2023-04-15T04:55:00.408Z,10.00
2023-04-15T04:56:00.336Z,10.00
2023-04-15T04:57:00.346Z,10.00
2023-04-15T04:58:00.338Z,10.00
2023-04-15T04:59:00.587Z,10.00
2023-04-15T05:00:00.839Z,10.00
2023-04-15T05:01:00.412Z,10.00
2023-04-15T05:02:00.434Z,10.00
2023-04-15T05:03:00.621Z,10.00
2023-04-15T05:04:00.669Z,10.00
2023-04-15T05:05:00.459Z,10.00
2023-04-15T05:06:00.363Z,10.00
2023-04-15T05:07:00.325Z,10.00
2023-04-15T05:08:00.332Z,10.00
2023-04-15T05:09:00.523Z,10.00
2023-04-15T05:10:00.357Z,10.00
2023-04-15T05:11:00.351Z,10.00
2023-04-15T05:12:00.692Z,10.00
2023-04-15T05:13:00.388Z,10.00
2023-04-15T05:14:00.342Z,10.00
2023-04-15T05:15:00.347Z,10.00
2023-04-15T05:16:00.373Z,10.80
2023-04-15T05:17:00.369Z,10.80
2023-04-15T05:18:00.389Z,10.80
2023-04-15T05:19:00.565Z,10.80
2023-04-15T05:20:01.037Z,10.80
2023-04-15T05:21:01.291Z,10.80
2023-04-15T05:22:00.354Z,10.80
2023-04-15T05:23:00.351Z,10.80
2023-04-15T05:24:00.389Z,10.80
2023-04-15T05:25:00.456Z,10.80
2023-04-15T05:26:00.345Z,10.80
2023-04-15T05:27:00.378Z,10.80
2023-04-15T05:28:00.334Z,10.80
2023-04-15T05:29:00.606Z,10.80
2023-04-15T05:30:00.405Z,10.80
2023-04-15T05:31:00.409Z,10.80
2023-04-15T05:32:00.387Z,10.80
2023-04-15T05:33:00.396Z,10.80
2023-04-15T05:34:00.424Z,10.80
2023-04-15T05:35:00.381Z,10.80
2023-04-15T05:36:00.353Z,10.80
2023-04-15T05:37:00.401Z,10.80
2023-04-15T05:38:00.334Z,10.80
2023-04-15T05:39:00.684Z,10.80
2023-04-15T05:40:00.374Z,10.80
2023-04-15T05:41:00.353Z,10.80
2023-04-15T05:42:00.354Z,10.80
2023-04-15T05:43:00.329Z,10.80
2023-04-15T05:44:00.348Z,10.80
2023-04-15T05:45:00.348Z,10.80
2023-04-15T05:46:00.373Z,15.30
2023-04-15T05:47:00.348Z,15.30
2023-04-15T05:48:00.437Z,15.30
2023-04-15T05:49:00.625Z,15.30
2023-04-15T05:50:00.338Z,15.30
2023-04-15T05:51:00.377Z,15.30
2023-04-15T05:52:00.340Z,15.30
2023-04-15T05:53:00.410Z,15.30
2023-04-15T05:54:00.480Z,15.30
2023-04-15T05:55:00.338Z,15.30
2023-04-15T05:56:00.349Z,15.30
2023-04-15T05:57:00.345Z,15.30
2023-04-15T05:58:00.351Z,15.30
2023-04-15T05:59:00.680Z,15.30
2023-04-15T06:00:00.342Z,15.30
2023-04-15T06:01:00.351Z,15.30
2023-04-15T06:02:00.375Z,15.30
2023-04-15T06:03:00.464Z,15.30
2023-04-15T06:04:00.518Z,15.30
2023-04-15T06:05:00.554Z,15.30
2023-04-15T06:06:00.332Z,15.30
2023-04-15T06:07:00.345Z,15.30
2023-04-15T06:08:00.380Z,15.30
2023-04-15T06:09:00.556Z,15.30
2023-04-15T06:10:00.375Z,15.30
2023-04-15T06:11:00.408Z,15.30
2023-04-15T06:12:00.664Z,15.30
2023-04-15T06:13:00.327Z,15.30
2023-04-15T06:14:00.341Z,15.30
2023-04-15T06:15:00.543Z,15.30
2023-04-15T06:16:00.405Z,11.80
2023-04-15T06:17:00.363Z,11.80
2023-04-15T06:18:00.435Z,11.80
2023-04-15T06:19:00.494Z,11.80
2023-04-15T06:20:00.365Z,11.80
2023-04-15T06:21:00.586Z,11.80
2023-04-15T06:22:00.367Z,11.80
2023-04-15T06:23:00.343Z,11.80
2023-04-15T06:24:00.366Z,11.80
2023-04-15T06:25:00.432Z,11.80
2023-04-15T06:26:00.348Z,11.80
2023-04-15T06:27:00.350Z,11.80
2023-04-15T06:28:00.341Z,11.80
2023-04-15T06:29:00.695Z,11.80
2023-04-15T06:30:00.351Z,11.80
2023-04-15T06:31:00.374Z,11.80
2023-04-15T06:32:00.429Z,11.80
2023-04-15T06:33:00.449Z,11.80
2023-04-15T06:34:00.353Z,11.80
2023-04-15T06:35:00.355Z,11.80
2023-04-15T06:36:00.339Z,11.80
2023-04-15T06:37:00.354Z,11.80
2023-04-15T06:38:00.398Z,11.80
2023-04-15T06:39:00.550Z,11.80
2023-04-15T06:40:00.338Z,11.80
2023-04-15T06:41:00.352Z,11.80
2023-04-15T06:42:00.379Z,11.80
2023-04-15T06:43:00.328Z,11.80
2023-04-15T06:44:00.432Z,11.80
2023-04-15T06:45:00.451Z,11.80
2023-04-15T06:46:00.335Z,9.50
2023-04-15T06:47:00.331Z,9.50
2023-04-15T06:48:00.559Z,9.50
2023-04-15T06:49:00.688Z,9.50
2023-04-15T06:50:00.343Z,9.50
2023-04-15T06:51:00.446Z,9.50
2023-04-15T06:52:00.760Z,9.50
2023-04-15T06:53:00.334Z,9.50
2023-04-15T06:54:00.404Z,9.50
2023-04-15T06:55:00.585Z,9.50
2023-04-15T06:56:00.385Z,9.50
2023-04-15T06:57:00.329Z,9.50
2023-04-15T06:58:00.348Z,9.50
2023-04-15T07:00:00.449Z,9.50
2023-04-15T07:01:00.474Z,9.50
2023-04-15T07:02:00.635Z,9.50
2023-04-15T07:03:00.389Z,9.50
2023-04-15T07:04:00.403Z,9.50
2023-04-15T07:05:00.319Z,9.50
2023-04-15T07:06:00.348Z,9.50
2023-04-15T07:07:00.329Z,9.50
2023-04-15T07:08:00.334Z,9.50
2023-04-15T07:09:00.995Z,9.50
2023-04-15T07:10:00.351Z,9.50
2023-04-15T07:11:00.694Z,9.50
2023-04-15T07:12:00.353Z,9.50
2023-04-15T07:13:00.354Z,9.50
2023-04-15T07:14:00.352Z,9.50
2023-04-15T07:15:00.413Z,9.50
2023-04-15T07:16:00.338Z,8.50
2023-04-15T07:17:00.356Z,8.50
2023-04-15T07:18:00.360Z,8.50
2023-04-15T07:19:00.671Z,8.50
2023-04-15T07:20:00.338Z,8.50
2023-04-15T07:21:00.357Z,8.50
2023-04-15T07:22:00.383Z,8.50
2023-04-15T07:23:00.338Z,8.50
2023-04-15T07:24:00.324Z,8.50
2023-04-15T07:25:00.348Z,8.50
2023-04-15T07:26:00.399Z,8.50
2023-04-15T07:27:01.206Z,8.50
2023-04-15T07:28:00.339Z,8.50
2023-04-15T07:29:00.610Z,8.50
2023-04-15T07:30:01.029Z,8.50
2023-04-15T07:31:00.400Z,8.50
2023-04-15T07:32:00.349Z,8.50
2023-04-15T07:33:00.692Z,8.50
2023-04-15T07:34:00.337Z,8.50
2023-04-15T07:35:00.386Z,8.50
2023-04-15T07:36:00.331Z,8.50
2023-04-15T07:37:00.328Z,8.50
2023-04-15T07:38:00.335Z,8.50
2023-04-15T07:39:00.529Z,8.50
2023-04-15T07:40:00.666Z,8.50
2023-04-15T07:41:00.376Z,8.50
2023-04-15T07:42:00.373Z,8.50
2023-04-15T07:43:00.393Z,8.50
2023-04-15T07:44:00.426Z,8.50
2023-04-15T07:45:00.341Z,8.50
2023-04-15T07:46:00.435Z,8.70
2023-04-15T07:47:01.097Z,8.70
2023-04-15T07:48:01.133Z,8.70
2023-04-15T07:49:00.801Z,8.70
2023-04-15T07:50:00.742Z,8.70
2023-04-15T07:51:00.690Z,8.70
2023-04-15T07:52:00.380Z,8.70
2023-04-15T07:53:00.436Z,8.70
2023-04-15T07:54:00.341Z,8.70
2023-04-15T07:55:00.339Z,8.70
2023-04-15T07:56:00.351Z,8.70
2023-04-15T07:57:00.351Z,8.70
2023-04-15T07:58:00.334Z,8.70
2023-04-15T07:59:00.693Z,8.70
2023-04-15T08:00:00.378Z,8.70
2023-04-15T08:01:00.373Z,8.70
2023-04-15T08:02:00.387Z,8.70
2023-04-15T08:03:00.554Z,8.70
2023-04-15T08:04:00.518Z,8.70
2023-04-15T08:05:00.372Z,8.70
2023-04-15T08:06:00.344Z,8.70
2023-04-15T08:07:00.398Z,8.70
2023-04-15T08:08:00.345Z,8.70
2023-04-15T08:09:00.706Z,8.70
2023-04-15T08:10:00.338Z,8.70
2023-04-15T08:11:00.369Z,8.70
2023-04-15T08:12:00.376Z,8.70
2023-04-15T08:13:00.350Z,8.70
2023-04-15T08:14:00.688Z,8.70
2023-04-15T08:15:00.360Z,8.70
2023-04-15T08:16:10.300Z,9.90
2023-04-15T08:17:00.339Z,9.90
2023-04-15T08:18:00.494Z,9.90
2023-04-15T08:19:00.589Z,9.90
2023-04-15T08:20:00.346Z,9.90
2023-04-15T08:21:00.343Z,9.90
2023-04-15T08:22:00.384Z,9.90
2023-04-15T08:23:00.372Z,9.90
2023-04-15T08:24:00.455Z,9.90
2023-04-15T08:25:00.343Z,9.90
2023-04-15T08:26:00.362Z,9.90
2023-04-15T08:27:00.336Z,9.90
2023-04-15T08:28:02.987Z,9.90
2023-04-15T08:29:00.658Z,9.90
2023-04-15T08:30:02.150Z,9.90
2023-04-15T08:31:00.405Z,9.90
2023-04-15T08:32:00.417Z,9.90
2023-04-15T08:33:00.354Z,9.90
2023-04-15T08:34:00.469Z,9.90
2023-04-15T08:35:00.476Z,9.90
2023-04-15T08:36:00.368Z,9.90
2023-04-15T08:37:00.326Z,9.90
2023-04-15T08:38:00.335Z,9.90
2023-04-15T08:39:00.532Z,9.90
2023-04-15T08:40:00.340Z,9.90
2023-04-15T08:41:03.194Z,9.90
2023-04-15T08:42:01.049Z,9.90
2023-04-15T08:43:02.660Z,9.90
2023-04-15T08:44:02.550Z,9.90
2023-04-15T08:45:03.022Z,9.90
2023-04-15T08:46:00.449Z,11.50
2023-04-15T08:47:00.766Z,11.50
2023-04-15T08:48:03.092Z,11.50
2023-04-15T08:49:02.567Z,11.50
2023-04-15T08:50:02.592Z,11.50
2023-04-15T08:51:00.799Z,11.50
2023-04-15T08:52:01.626Z,11.50
2023-04-15T08:53:00.945Z,11.50
2023-04-15T08:54:01.207Z,11.50
2023-04-15T08:55:01.624Z,11.50
2023-04-15T08:56:03.508Z,11.50
2023-04-15T08:57:00.627Z,11.50
2023-04-15T08:58:01.076Z,11.50
2023-04-15T08:59:00.907Z,11.50
2023-04-15T09:00:03.111Z,11.50
2023-04-15T09:01:00.394Z,11.50
2023-04-15T09:02:01.433Z,11.50
2023-04-15T09:03:00.524Z,11.50
2023-04-15T09:04:01.834Z,11.50
2023-04-15T09:05:00.352Z,11.50
2023-04-15T09:06:02.896Z,11.50
2023-04-15T09:07:00.366Z,11.50
2023-04-15T09:08:01.059Z,11.50
2023-04-15T09:09:00.557Z,11.50
2023-04-15T09:10:00.376Z,11.50
2023-04-15T09:11:00.984Z,11.50
2023-04-15T09:12:00.585Z,11.50
2023-04-15T09:13:00.672Z,11.50
2023-04-15T09:14:00.403Z,11.50
2023-04-15T09:15:01.005Z,11.50
2023-04-15T09:16:01.076Z,15.10
2023-04-15T09:17:01.630Z,15.10
2023-04-15T09:18:00.405Z,15.10
2023-04-15T09:19:01.056Z,15.10
2023-04-15T09:20:08.818Z,15.10
2023-04-15T09:21:04.130Z,15.10
2023-04-15T09:22:00.976Z,15.10
2023-04-15T09:23:10.256Z,15.10
2023-04-15T09:24:00.598Z,15.10
2023-04-15T09:25:00.410Z,15.10
2023-04-15T09:26:00.895Z,15.10
2023-04-15T09:27:00.350Z,15.10
2023-04-15T09:28:00.951Z,15.10
2023-04-15T09:29:04.234Z,15.10
2023-04-15T09:30:00.355Z,15.10
2023-04-15T09:31:01.252Z,15.10
2023-04-15T09:32:10.249Z,15.10
2023-04-15T09:33:01.157Z,15.10
2023-04-15T09:35:09.907Z,15.10
2023-04-15T09:36:00.331Z,15.10
2023-04-15T09:37:00.352Z,15.10
2023-04-15T09:38:02.712Z,15.10
2023-04-15T09:39:00.380Z,15.10
2023-04-15T09:40:00.327Z,15.10
2023-04-15T09:41:00.349Z,15.10
2023-04-15T09:42:04.419Z,15.10
2023-04-15T09:43:00.723Z,15.10
2023-04-15T09:44:00.637Z,15.10
2023-04-15T09:45:08.281Z,15.10
2023-04-15T09:46:00.361Z,15.00
2023-04-15T09:47:00.384Z,15.00
2023-04-15T09:48:10.257Z,15.00
2023-04-15T09:49:08.509Z,15.00
2023-04-15T09:50:00.632Z,15.00
2023-04-15T09:51:00.700Z,15.00
2023-04-15T09:52:05.698Z,15.00
2023-04-15T09:53:02.337Z,15.00
2023-04-15T09:54:00.474Z,15.00
2023-04-15T09:55:00.459Z,15.00
2023-04-15T09:56:00.862Z,15.00
2023-04-15T09:57:04.245Z,15.00
2023-04-15T09:58:00.333Z,15.00
2023-04-15T09:59:00.374Z,15.00
2023-04-15T10:00:00.356Z,15.00
2023-04-15T10:01:02.435Z,15.00
2023-04-15T10:02:03.010Z,15.00
2023-04-15T10:03:02.299Z,15.00
2023-04-15T10:04:03.490Z,15.00
2023-04-15T10:05:00.986Z,15.00
2023-04-15T10:06:00.983Z,15.00
2023-04-15T10:07:01.821Z,15.00
2023-04-15T10:08:00.586Z,15.00
2023-04-15T10:09:00.494Z,15.00
2023-04-15T10:10:00.663Z,15.00
2023-04-15T10:11:01.862Z,15.00
2023-04-15T10:12:01.121Z,15.00
2023-04-15T10:13:00.376Z,15.00
2023-04-15T10:14:01.243Z,15.00
2023-04-15T10:15:03.116Z,15.00
2023-04-15T10:16:04.844Z,16.00
2023-04-15T10:17:01.115Z,16.00
2023-04-15T10:18:00.942Z,16.00
2023-04-15T10:19:01.068Z,16.00
2023-04-15T10:20:01.187Z,16.00
2023-04-15T10:21:00.924Z,16.00
2023-04-15T10:22:00.394Z,16.00
2023-04-15T10:23:00.803Z,16.00
2023-04-15T10:24:01.206Z,16.00
2023-04-15T10:25:01.766Z,16.00
2023-04-15T10:26:01.507Z,16.00
2023-04-15T10:27:01.956Z,16.00
2023-04-15T10:28:00.469Z,16.00
2023-04-15T10:29:00.417Z,16.00
2023-04-15T10:30:00.466Z,16.00
2023-04-15T10:31:00.656Z,16.00
2023-04-15T10:32:00.669Z,16.00
2023-04-15T10:33:01.532Z,16.00
2023-04-15T10:34:00.713Z,16.00
2023-04-15T10:35:00.849Z,16.00
2023-04-15T10:36:01.019Z,16.00
2023-04-15T10:37:01.198Z,16.00
2023-04-15T10:38:00.340Z,16.00
2023-04-15T10:39:00.343Z,16.00
2023-04-15T10:40:00.381Z,16.00
2023-04-15T10:41:10.252Z,16.00
2023-04-15T10:42:06.300Z,16.00
2023-04-15T10:43:01.368Z,16.00
2023-04-15T10:44:02.711Z,16.00
2023-04-15T10:45:00.416Z,16.00
2023-04-15T10:46:00.381Z,16.30
2023-04-15T10:47:00.658Z,16.30
2023-04-15T10:48:03.474Z,16.30
2023-04-15T10:49:05.606Z,16.30
2023-04-15T10:50:00.852Z,16.30
2023-04-15T10:51:00.585Z,16.30
2023-04-15T10:52:00.764Z,16.30
2023-04-15T10:53:02.332Z,16.30
2023-04-15T10:54:00.582Z,16.30
2023-04-15T10:55:10.253Z,16.30
2023-04-15T10:56:00.369Z,16.30
2023-04-15T10:57:00.333Z,16.30
2023-04-15T10:58:00.984Z,16.30
2023-04-15T10:59:00.343Z,16.30
2023-04-15T11:00:00.359Z,16.30
2023-04-15T11:01:00.957Z,16.30
2023-04-15T11:02:02.005Z,16.30
2023-04-15T11:03:05.341Z,16.30
2023-04-15T11:04:00.469Z,16.30
2023-04-15T11:05:00.360Z,16.30
2023-04-15T11:06:00.426Z,16.30
2023-04-15T11:07:07.575Z,16.30
2023-04-15T11:08:00.358Z,16.30
2023-04-15T11:09:00.366Z,16.30
2023-04-15T11:10:00.378Z,16.30
2023-04-15T11:11:00.332Z,16.30
2023-04-15T11:12:04.132Z,16.30
2023-04-15T11:13:10.254Z,16.30
2023-04-15T11:14:01.569Z,16.30
2023-04-15T11:15:10.237Z,16.30
2023-04-15T11:16:01.103Z,13.30
2023-04-15T11:17:00.690Z,13.30
2023-04-15T11:18:10.334Z,13.30
2023-04-15T11:19:00.401Z,13.30
2023-04-15T11:20:00.407Z,13.30
2023-04-15T11:21:01.668Z,13.30
2023-04-15T11:22:08.194Z,13.30
2023-04-15T11:23:13.915Z,13.30
2023-04-15T11:24:02.151Z,13.30
2023-04-15T11:25:00.398Z,13.30
2023-04-15T11:26:01.398Z,13.30
2023-04-15T11:27:01.060Z,13.30
2023-04-15T11:28:00.757Z,13.30
2023-04-15T11:29:00.380Z,13.30
2023-04-15T11:30:00.363Z,13.30
2023-04-15T11:31:09.441Z,13.30
2023-04-15T11:32:10.420Z,13.30
2023-04-15T11:33:01.596Z,13.30
2023-04-15T11:34:01.684Z,13.30
2023-04-15T11:35:00.341Z,13.30
2023-04-15T11:36:00.398Z,13.30
2023-04-15T11:37:03.114Z,13.30
2023-04-15T11:38:04.247Z,13.30
2023-04-15T11:39:00.363Z,13.30
2023-04-15T11:40:01.583Z,13.30
2023-04-15T11:41:00.408Z,13.30
2023-04-15T11:42:00.328Z,13.30
2023-04-15T11:43:03.611Z,13.30
2023-04-15T11:44:00.381Z,13.30
2023-04-15T11:45:10.264Z,13.30
2023-04-15T11:46:01.061Z,11.40
2023-04-15T11:47:00.351Z,11.40
2023-04-15T11:48:08.499Z,11.40
2023-04-15T11:49:00.432Z,11.40
2023-04-15T11:50:10.278Z,11.40
2023-04-15T11:51:02.475Z,11.40
2023-04-15T11:52:00.345Z,11.40
2023-04-15T11:53:02.426Z,11.40
2023-04-15T11:54:00.388Z,11.40
2023-04-15T11:55:02.964Z,11.40
2023-04-15T11:56:00.351Z,11.40
2023-04-15T11:57:00.468Z,11.40
2023-04-15T11:58:10.252Z,11.40
2023-04-15T11:59:00.343Z,11.40
2023-04-15T12:00:00.385Z,11.40
2023-04-15T12:01:00.491Z,11.40
2023-04-15T12:02:10.093Z,11.40
2023-04-15T12:03:10.429Z,11.40
2023-04-15T12:04:00.476Z,11.40
2023-04-15T12:05:05.489Z,11.40
2023-04-15T12:06:02.099Z,11.40
2023-04-15T12:07:03.623Z,11.40
2023-04-15T12:08:00.354Z,11.40
2023-04-15T12:09:02.565Z,11.40
2023-04-15T12:10:02.060Z,11.40
2023-04-15T12:11:00.364Z,11.40
2023-04-15T12:12:00.389Z,11.40
2023-04-15T12:13:00.376Z,11.40
2023-04-15T12:14:08.877Z,11.40
2023-04-15T12:15:00.364Z,11.40
2023-04-15T12:16:02.392Z,8.30
2023-04-15T12:17:01.519Z,8.30
2023-04-15T12:18:00.420Z,8.30
2023-04-15T12:19:03.488Z,8.30
2023-04-15T12:20:00.321Z,8.30
2023-04-15T12:21:04.072Z,8.30
2023-04-15T12:22:02.696Z,8.30
2023-04-15T12:23:07.438Z,8.30
2023-04-15T12:24:03.071Z,8.30
2023-04-15T12:25:00.375Z,8.30
2023-04-15T12:26:03.718Z,8.30
2023-04-15T12:27:01.801Z,8.30
2023-04-15T12:28:00.337Z,8.30
2023-04-15T12:29:00.932Z,8.30
2023-04-15T12:30:07.766Z,8.30
2023-04-15T12:31:05.685Z,8.30
2023-04-15T12:32:08.060Z,8.30
2023-04-15T12:33:01.971Z,8.30
2023-04-15T12:34:00.453Z,8.30
2023-04-15T12:35:00.336Z,8.30
2023-04-15T12:36:00.923Z,8.30
2023-04-15T12:37:01.895Z,8.30
2023-04-15T12:38:00.326Z,8.30
2023-04-15T12:39:00.710Z,8.30
2023-04-15T12:40:00.378Z,8.30
2023-04-15T12:41:00.339Z,8.30
2023-04-15T12:42:00.677Z,8.30
2023-04-15T12:43:00.333Z,8.30
2023-04-15T12:44:00.361Z,8.30
2023-04-15T12:45:00.343Z,8.30
2023-04-15T12:46:00.337Z,11.70
2023-04-15T12:47:00.574Z,11.70
2023-04-15T12:48:00.453Z,11.70
2023-04-15T12:49:00.378Z,11.70
2023-04-15T12:50:00.355Z,11.70
2023-04-15T12:51:00.410Z,11.70
2023-04-15T12:52:01.518Z,11.70
2023-04-15T12:53:00.436Z,11.70
2023-04-15T12:54:00.358Z,11.70
2023-04-15T12:55:00.357Z,11.70
2023-04-15T12:56:00.422Z,11.70
2023-04-15T12:57:01.387Z,11.70
2023-04-15T12:58:00.343Z,11.70
2023-04-15T12:59:00.379Z,11.70
2023-04-15T13:00:00.380Z,11.70
2023-04-15T13:01:00.361Z,11.70
2023-04-15T13:02:00.523Z,11.70
2023-04-15T13:03:00.568Z,11.70
2023-04-15T13:04:00.543Z,11.70
2023-04-15T13:05:00.385Z,11.70
2023-04-15T13:06:00.374Z,11.70